Soda Springs, California
Current Conditions -  °F | °C
As of 6:35 AM on Tuesday 21 Oct 2014 (Local Time) from KTRK Reporting Station
Clear Clear  
Wind Chill: 27°   Ceiling: Unl
Heat Index: 27°   Visibility: 10mi
Dew Point: 25°   Wind: 0mph
Humidity: 93%   Direction: NA
Pressure: 30.12"   Gusts: NA
Location:  39.32°N, 120.38°W
Report Text: KTRK 211335Z AUTO 00000KT 10SM CLR M03/M04 A3012 RMK AO2 LTG DSNT NW
Loading
Personal Weather Stations






























Interactive Weather Map
Tropical Storm Tracking
New forecast layout! Learn more

10-Day Weather Forecast

Advertisements
Track Severe Weather on mobile